Back to Top

Current Local METAR Station Weather Reports...

Local METAR Reports

Local METAR Reports

 

EGCN - Doncaster Sheffield Airport, United Kingdom
Distance from station: E 20mi, 32km
Updated: Thu, 21-Nov-2019 6:20am GMT
Few Clouds
Few Clouds
 Wind from varies
Wind: varies 1 mph , 2 km/h
Temperature: 1°C
Dew Point: 0°C
Humidity: 93%
Barometer: 1009 hPa
Clouds: Few Clouds
Visibility: 6 miles , 10 km
Cloud details: Few Clouds 640 m
2019/11/21 06:20 EGCN 210620Z VRB01KT 9999 FEW021 01/00 Q1009
EGNM - Leeds Bradford International, United Kingdom
Distance from station: NNW 24mi, 39km
Updated: Thu, 21-Nov-2019 6:20am GMT
Mostly Cloudy
Mostly Cloudy
 Wind from E
Wind: E 9 mph , 15 km/h
Temperature: 1°C
Wind Chill: -3°C
Dew Point: 0°C
Humidity: 93%
Barometer: 1007 hPa
Clouds: Mostly Cloudy
Visibility: 6 miles , 10 km
Cloud details: Mostly Cloudy 518 m
2019/11/21 06:20 EGNM 210620Z 08008KT 010V110 9999 BKN017 01/00 Q1007
 
EGCC - Manchester International, United Kingdom
Distance from station: WSW 35mi, 56km
Updated: Thu, 21-Nov-2019 6:20am GMT
Overcast
Overcast
 Wind from varies
Wind: varies 6 mph , 9 km/h
Temperature: 4°C
Wind Chill: 2°C
Dew Point: 0°C
Humidity: 75%
Barometer: 1006 hPa
Clouds: Overcast
Visibility: 6 miles , 10 km
Cloud details: Overcast 549 m
2019/11/21 06:20 EGCC 210620Z AUTO VRB05KT 9999 OVC018 04/00 Q1006 NOSIG
EGXU - Linton-On-Ouse RAF, United Kingdom
Distance from station: NNE 37mi, 60km
Updated: Thu, 21-Nov-2019 5:50am GMT
Clear
Clear
 Wind from NNE
Wind: NNE 3 mph , 6 km/h
Temperature: 0°C
Dew Point: -1°C
Humidity: 93%
Barometer: 1008 hPa
Clouds: Clear
Visibility: 3 miles , 5 km
2019/11/21 05:50 EGXU 210550Z AUTO 03003KT 4600 // NCD 00/M01 Q1008
 
EGXP - Scampton RAF, United Kingdom
Distance from station: ESE 41mi, 66km
Updated: Thu, 21-Nov-2019 5:50am GMT
Clear
Clear
 Wind from ESE
Wind: ESE 9 mph , 15 km/h
Temperature: 2°C
Wind Chill: -2°C
Dew Point: 1°C
Humidity: 93%
Barometer: 1007 hPa
Clouds: Clear
Visibility: 6 miles , 9 km
2019/11/21 05:50 EGXP 210550Z AUTO 11008KT 9000 // NCD 02/01 Q1007
EGNJ - Humberside Airport, United Kingdom
Distance from station: E 46mi, 74km
Updated: Thu, 21-Nov-2019 6:20am GMT
Partly Cloudy
Partly Cloudy
 Wind from E
Wind: E 8 mph , 13 km/h
Temperature: 3°C
Wind Chill: -1°C
Dew Point: 2°C
Humidity: 93%
Barometer: 1008 hPa
Clouds: Partly Cloudy
Visibility: 6 miles , 10 km
Cloud details: Partly Cloudy 671 m
2019/11/21 06:20 EGNJ 210620Z 10007KT 9999 SCT022 03/02 Q1008
 
EGXW - Waddington RAF, United Kingdom
Distance from station: ESE 46mi, 74km
Updated: Thu, 21-Nov-2019 5:50am GMT
Haze, Few clouds
Haze, Few clouds
 Wind from E
Wind: E 12 mph , 19 km/h
Temperature: 2°C
Wind Chill: -2°C
Dew Point: 1°C
Humidity: 93%
Barometer: 1007 hPa
Summary: Haze
Clouds: Few Clouds
Visibility: 4 miles , 7 km
Cloud details: Few Clouds 7620 m
2019/11/21 05:50 EGXW 210550Z 10010KT 7000 HZ FEW250 02/01 Q1007 RMK WHT
EGXZ - Topcliffe RAF, United Kingdom
Distance from station: N 46mi, 75km
Updated: Thu, 21-Nov-2019 5:50am GMT
Haze, Few clouds
Haze, Few clouds
 Wind from SSW
Wind: SSW 2 mph , 4 km/h
Temperature: 0°C
Dew Point: -1°C
Humidity: 93%
Barometer: 1008 hPa
Summary: Haze
Clouds: Few Clouds
Visibility: 4 miles , 6 km
Cloud details: Few Clouds 7315 m
2019/11/21 05:50 EGXZ 210550Z AUTO 20002KT 6000 HZ FEW240/// 00/M01 Q1008
 
EGXV - Leconfield, United Kingdom
Distance from station: ENE 48mi, 77km
Updated: Thu, 21-Nov-2019 5:50am GMT
Haze, Few clouds
Haze, Few clouds
 Wind from E
Wind: E 7 mph , 11 km/h
Temperature: 3°C
Wind Chill: 0°C
Dew Point: 2°C
Humidity: 93%
Barometer: 1008 hPa
Summary: Haze
Clouds: Few Clouds
Visibility: 6 miles , 9 km
Cloud details: Few Clouds 6706 m
2019/11/21 05:50 EGXV 210550Z AUTO 09006KT 9000 HZ FEW220/// 03/02 Q1008
EGNX - East Midlands, United Kingdom
Distance from station: S 50mi, 80km
Updated: Thu, 21-Nov-2019 6:20am GMT
Mostly Cloudy
Mostly Cloudy
 Wind from E
Wind: E 8 mph , 13 km/h
Temperature: 2°C
Wind Chill: -1°C
Dew Point: 2°C
Humidity: 100%
Barometer: 1006 hPa
Clouds: Mostly Cloudy
Visibility: 6 miles , 10 km
Cloud details: Mostly Cloudy 427 m
2019/11/21 06:20 EGNX 210620Z 08007KT 9999 BKN014 02/02 Q1006

Metar display script from Saratoga-Weather.org

Data updates at regular intervals.